sensor_id;sensor_type;location;lat;lon;timestamp;P1;durP1;ratioP1;P2;durP2;ratioP2
19560;SDS011;9927;47.792;10.616;2023-11-18T00:32:33;51.93;;;6.70;;
19560;SDS011;9927;47.792;10.616;2023-11-18T00:35:02;3.73;;;3.63;;
19560;SDS011;9927;47.792;10.616;2023-11-18T00:37:32;3.60;;;3.50;;
19560;SDS011;9927;47.792;10.616;2023-11-18T00:40:00;4.07;;;3.67;;
19560;SDS011;9927;47.792;10.616;2023-11-18T00:42:27;3.27;;;3.17;;
19560;SDS011;9927;47.792;10.616;2023-11-18T00:44:54;3.40;;;3.30;;
19560;SDS011;9927;47.792;10.616;2023-11-18T00:47:21;3.40;;;3.30;;
19560;SDS011;9927;47.792;10.616;2023-11-18T00:49:50;3.17;;;3.17;;
19560;SDS011;9927;47.792;10.616;2023-11-18T00:52:19;3.10;;;3.10;;
19560;SDS011;9927;47.792;10.616;2023-11-18T00:54:46;2.90;;;2.90;;
19560;SDS011;9927;47.792;10.616;2023-11-18T00:57:13;2.70;;;2.70;;
19560;SDS011;9927;47.792;10.616;2023-11-18T00:59:41;2.83;;;2.83;;
19560;SDS011;9927;47.792;10.616;2023-11-18T01:02:09;2.77;;;2.77;;
19560;SDS011;9927;47.792;10.616;2023-11-18T01:04:37;3.10;;;3.10;;
19560;SDS011;9927;47.792;10.616;2023-11-18T01:07:05;3.00;;;3.00;;
19560;SDS011;9927;47.792;10.616;2023-11-18T01:09:32;3.20;;;3.20;;
19560;SDS011;9927;47.792;10.616;2023-11-18T01:12:05;3.13;;;3.13;;
19560;SDS011;9927;47.792;10.616;2023-11-18T01:14:36;3.00;;;3.00;;
19560;SDS011;9927;47.792;10.616;2023-11-18T01:17:06;3.33;;;3.30;;
19560;SDS011;9927;47.792;10.616;2023-11-18T01:19:33;3.33;;;3.33;;
19560;SDS011;9927;47.792;10.616;2023-11-18T01:22:00;3.50;;;3.40;;
19560;SDS011;9927;47.792;10.616;2023-11-18T01:24:32;3.07;;;3.07;;
19560;SDS011;9927;47.792;10.616;2023-11-18T01:27:00;3.77;;;3.67;;
19560;SDS011;9927;47.792;10.616;2023-11-18T01:29:27;3.30;;;3.30;;
19560;SDS011;9927;47.792;10.616;2023-11-18T01:31:54;3.70;;;3.60;;
19560;SDS011;9927;47.792;10.616;2023-11-18T01:34:23;3.60;;;3.50;;
19560;SDS011;9927;47.792;10.616;2023-11-18T01:36:50;3.53;;;3.43;;
19560;SDS011;9927;47.792;10.616;2023-11-18T01:39:17;4.00;;;3.90;;
19560;SDS011;9927;47.792;10.616;2023-11-18T01:41:45;3.90;;;3.80;;
19560;SDS011;9927;47.792;10.616;2023-11-18T01:44:13;4.10;;;4.00;;
19560;SDS011;9927;47.792;10.616;2023-11-18T01:46:44;4.80;;;4.40;;
19560;SDS011;9927;47.792;10.616;2023-11-18T01:49:13;4.27;;;4.17;;
19560;SDS011;9927;47.792;10.616;2023-11-18T01:51:44;4.20;;;4.10;;
19560;SDS011;9927;47.792;10.616;2023-11-18T01:54:13;5.10;;;4.90;;
19560;SDS011;9927;47.792;10.616;2023-11-18T01:56:46;4.20;;;4.10;;
19560;SDS011;9927;47.792;10.616;2023-11-18T01:59:15;4.73;;;4.53;;
19560;SDS011;9927;47.792;10.616;2023-11-18T02:01:47;4.70;;;4.50;;
19560;SDS011;9927;47.792;10.616;2023-11-18T02:04:16;5.00;;;4.77;;
19560;SDS011;9927;47.792;10.616;2023-11-18T02:06:50;4.90;;;4.70;;
19560;SDS011;9927;47.792;10.616;2023-11-18T02:09:19;5.57;;;5.27;;
19560;SDS011;9927;47.792;10.616;2023-11-18T02:14:27;5.70;;;5.40;;
19560;SDS011;9927;47.792;10.616;2023-11-18T02:16:56;5.40;;;5.20;;
19560;SDS011;9927;47.792;10.616;2023-11-18T02:19:29;5.63;;;5.33;;
19560;SDS011;9927;47.792;10.616;2023-11-18T02:21:57;5.50;;;5.20;;
19560;SDS011;9927;47.792;10.616;2023-11-18T02:24:27;5.87;;;5.40;;
19560;SDS011;9927;47.792;10.616;2023-11-18T02:27:00;6.23;;;5.73;;
19560;SDS011;9927;47.792;10.616;2023-11-18T02:29:29;5.90;;;5.60;;
19560;SDS011;9927;47.792;10.616;2023-11-18T02:32:23;5.90;;;5.50;;
19560;SDS011;9927;47.792;10.616;2023-11-18T02:35:18;6.67;;;6.27;;
19560;SDS011;9927;47.792;10.616;2023-11-18T02:37:50;5.80;;;5.50;;
19560;SDS011;9927;47.792;10.616;2023-11-18T02:42:59;6.50;;;6.10;;
19560;SDS011;9927;47.792;10.616;2023-11-18T02:45:28;6.17;;;5.77;;
19560;SDS011;9927;47.792;10.616;2023-11-18T02:47:55;6.10;;;5.70;;
19560;SDS011;9927;47.792;10.616;2023-11-18T02:50:24;6.47;;;6.07;;
19560;SDS011;9927;47.792;10.616;2023-11-18T02:52:52;6.27;;;5.87;;
19560;SDS011;9927;47.792;10.616;2023-11-18T02:55:19;6.70;;;6.20;;
19560;SDS011;9927;47.792;10.616;2023-11-18T02:57:50;6.63;;;6.17;;
19560;SDS011;9927;47.792;10.616;2023-11-18T03:00:21;6.23;;;5.93;;
19560;SDS011;9927;47.792;10.616;2023-11-18T03:02:49;6.23;;;5.83;;
19560;SDS011;9927;47.792;10.616;2023-11-18T03:05:18;6.50;;;6.10;;
19560;SDS011;9927;47.792;10.616;2023-11-18T03:07:49;6.30;;;5.97;;
19560;SDS011;9927;47.792;10.616;2023-11-18T03:10:17;5.93;;;5.63;;
19560;SDS011;9927;47.792;10.616;2023-11-18T03:12:48;7.13;;;6.63;;
19560;SDS011;9927;47.792;10.616;2023-11-18T03:15:21;5.80;;;5.50;;
19560;SDS011;9927;47.792;10.616;2023-11-18T03:17:49;5.53;;;5.33;;
19560;SDS011;9927;47.792;10.616;2023-11-18T03:20:21;5.83;;;5.53;;
19560;SDS011;9927;47.792;10.616;2023-11-18T03:22:50;5.80;;;5.50;;
19560;SDS011;9927;47.792;10.616;2023-11-18T03:25:18;5.47;;;5.17;;
19560;SDS011;9927;47.792;10.616;2023-11-18T03:27:49;5.80;;;5.50;;
19560;SDS011;9927;47.792;10.616;2023-11-18T03:30:16;5.37;;;5.10;;
19560;SDS011;9927;47.792;10.616;2023-11-18T03:32:43;6.13;;;5.73;;
19560;SDS011;9927;47.792;10.616;2023-11-18T03:35:12;5.77;;;5.37;;
19560;SDS011;9927;47.792;10.616;2023-11-18T03:37:40;5.60;;;5.33;;
19560;SDS011;9927;47.792;10.616;2023-11-18T03:40:10;5.47;;;5.17;;
19560;SDS011;9927;47.792;10.616;2023-11-18T03:42:38;5.57;;;5.27;;
19560;SDS011;9927;47.792;10.616;2023-11-18T03:45:07;5.00;;;4.80;;
19560;SDS011;9927;47.792;10.616;2023-11-18T03:47:36;5.03;;;4.80;;
19560;SDS011;9927;47.792;10.616;2023-11-18T03:50:03;4.80;;;4.60;;
19560;SDS011;9927;47.792;10.616;2023-11-18T03:52:32;4.60;;;4.40;;
19560;SDS011;9927;47.792;10.616;2023-11-18T03:55:02;4.67;;;4.47;;
19560;SDS011;9927;47.792;10.616;2023-11-18T03:57:31;4.67;;;4.47;;
19560;SDS011;9927;47.792;10.616;2023-11-18T03:59:58;4.10;;;4.00;;
19560;SDS011;9927;47.792;10.616;2023-11-18T04:02:25;3.30;;;3.30;;
19560;SDS011;9927;47.792;10.616;2023-11-18T04:04:53;3.63;;;3.53;;
19560;SDS011;9927;47.792;10.616;2023-11-18T04:07:23;3.60;;;3.50;;
19560;SDS011;9927;47.792;10.616;2023-11-18T04:09:50;3.50;;;3.40;;
19560;SDS011;9927;47.792;10.616;2023-11-18T04:12:17;3.20;;;3.20;;
19560;SDS011;9927;47.792;10.616;2023-11-18T04:14:45;3.13;;;3.13;;
19560;SDS011;9927;47.792;10.616;2023-11-18T04:17:12;3.20;;;3.20;;
19560;SDS011;9927;47.792;10.616;2023-11-18T04:19:39;3.10;;;2.90;;
19560;SDS011;9927;47.792;10.616;2023-11-18T04:22:08;2.90;;;2.90;;
19560;SDS011;9927;47.792;10.616;2023-11-18T04:24:36;3.00;;;3.00;;
19560;SDS011;9927;47.792;10.616;2023-11-18T04:27:03;2.90;;;2.90;;
19560;SDS011;9927;47.792;10.616;2023-11-18T04:29:30;2.70;;;2.70;;
19560;SDS011;9927;47.792;10.616;2023-11-18T04:31:57;3.10;;;3.00;;
19560;SDS011;9927;47.792;10.616;2023-11-18T04:34:26;2.77;;;2.77;;
19560;SDS011;9927;47.792;10.616;2023-11-18T04:36:54;2.90;;;2.90;;
19560;SDS011;9927;47.792;10.616;2023-11-18T04:39:21;3.13;;;3.13;;
19560;SDS011;9927;47.792;10.616;2023-11-18T04:41:49;3.23;;;3.13;;
19560;SDS011;9927;47.792;10.616;2023-11-18T04:44:17;3.00;;;3.00;;
19560;SDS011;9927;47.792;10.616;2023-11-18T04:46:44;3.10;;;3.10;;
19560;SDS011;9927;47.792;10.616;2023-11-18T04:49:12;3.23;;;3.20;;
19560;SDS011;9927;47.792;10.616;2023-11-18T04:51:39;2.93;;;2.93;;
19560;SDS011;9927;47.792;10.616;2023-11-18T04:54:06;3.40;;;3.30;;
19560;SDS011;9927;47.792;10.616;2023-11-18T04:56:37;3.40;;;3.30;;
19560;SDS011;9927;47.792;10.616;2023-11-18T04:59:04;3.43;;;3.33;;
19560;SDS011;9927;47.792;10.616;2023-11-18T05:01:32;3.47;;;3.37;;
19560;SDS011;9927;47.792;10.616;2023-11-18T05:04:00;3.53;;;3.43;;
19560;SDS011;9927;47.792;10.616;2023-11-18T05:06:27;3.13;;;3.13;;
19560;SDS011;9927;47.792;10.616;2023-11-18T05:08:54;3.80;;;3.70;;
19560;SDS011;9927;47.792;10.616;2023-11-18T05:11:22;3.70;;;3.60;;
19560;SDS011;9927;47.792;10.616;2023-11-18T05:13:49;3.90;;;3.80;;
19560;SDS011;9927;47.792;10.616;2023-11-18T05:16:16;4.70;;;4.40;;
19560;SDS011;9927;47.792;10.616;2023-11-18T05:18:44;4.70;;;4.50;;
19560;SDS011;9927;47.792;10.616;2023-11-18T05:21:11;5.10;;;4.80;;
19560;SDS011;9927;47.792;10.616;2023-11-18T05:23:39;5.20;;;4.90;;
19560;SDS011;9927;47.792;10.616;2023-11-18T05:26:06;5.20;;;4.90;;
19560;SDS011;9927;47.792;10.616;2023-11-18T05:28:33;5.30;;;5.00;;
19560;SDS011;9927;47.792;10.616;2023-11-18T05:31:01;5.60;;;5.10;;
19560;SDS011;9927;47.792;10.616;2023-11-18T05:33:29;4.93;;;4.70;;
19560;SDS011;9927;47.792;10.616;2023-11-18T05:35:58;5.40;;;5.10;;
19560;SDS011;9927;47.792;10.616;2023-11-18T05:38:25;4.90;;;4.70;;
19560;SDS011;9927;47.792;10.616;2023-11-18T05:40:55;4.93;;;4.63;;
19560;SDS011;9927;47.792;10.616;2023-11-18T05:43:28;5.00;;;4.80;;
19560;SDS011;9927;47.792;10.616;2023-11-18T05:46:03;5.23;;;4.90;;
19560;SDS011;9927;47.792;10.616;2023-11-18T05:48:48;5.57;;;5.27;;
19560;SDS011;9927;47.792;10.616;2023-11-18T05:51:19;5.33;;;5.03;;
19560;SDS011;9927;47.792;10.616;2023-11-18T05:53:49;5.57;;;5.27;;
19560;SDS011;9927;47.792;10.616;2023-11-18T05:56:18;5.17;;;4.90;;
19560;SDS011;9927;47.792;10.616;2023-11-18T05:58:46;5.00;;;4.80;;
19560;SDS011;9927;47.792;10.616;2023-11-18T06:01:14;5.07;;;4.83;;
19560;SDS011;9927;47.792;10.616;2023-11-18T06:03:43;5.00;;;4.70;;
19560;SDS011;9927;47.792;10.616;2023-11-18T06:06:11;5.30;;;5.00;;
19560;SDS011;9927;47.792;10.616;2023-11-18T06:08:40;5.10;;;4.90;;
19560;SDS011;9927;47.792;10.616;2023-11-18T06:11:09;4.97;;;4.77;;
19560;SDS011;9927;47.792;10.616;2023-11-18T06:13:40;4.93;;;4.63;;
19560;SDS011;9927;47.792;10.616;2023-11-18T06:16:15;4.77;;;4.57;;
19560;SDS011;9927;47.792;10.616;2023-11-18T06:18:44;4.80;;;4.60;;
19560;SDS011;9927;47.792;10.616;2023-11-18T06:21:16;4.77;;;4.53;;
19560;SDS011;9927;47.792;10.616;2023-11-18T06:23:47;4.60;;;4.40;;
19560;SDS011;9927;47.792;10.616;2023-11-18T06:26:15;6.23;;;5.73;;
19560;SDS011;9927;47.792;10.616;2023-11-18T06:28:43;11.53;;;7.70;;
19560;SDS011;9927;47.792;10.616;2023-11-18T06:31:11;10.63;;;8.13;;
19560;SDS011;9927;47.792;10.616;2023-11-18T06:33:40;9.70;;;8.70;;
19560;SDS011;9927;47.792;10.616;2023-11-18T06:38:45;8.27;;;7.60;;
19560;SDS011;9927;47.792;10.616;2023-11-18T06:41:13;6.37;;;5.97;;
19560;SDS011;9927;47.792;10.616;2023-11-18T06:43:42;6.23;;;5.63;;
19560;SDS011;9927;47.792;10.616;2023-11-18T06:49:01;6.30;;;5.80;;
19560;SDS011;9927;47.792;10.616;2023-11-18T06:51:34;6.00;;;5.60;;
19560;SDS011;9927;47.792;10.616;2023-11-18T06:54:04;6.00;;;5.60;;
19560;SDS011;9927;47.792;10.616;2023-11-18T06:56:37;5.60;;;5.30;;
19560;SDS011;9927;47.792;10.616;2023-11-18T06:59:05;5.53;;;5.13;;
19560;SDS011;9927;47.792;10.616;2023-11-18T07:01:39;5.90;;;5.50;;
19560;SDS011;9927;47.792;10.616;2023-11-18T07:04:09;6.20;;;5.70;;
19560;SDS011;9927;47.792;10.616;2023-11-18T07:06:37;6.20;;;5.80;;
19560;SDS011;9927;47.792;10.616;2023-11-18T07:09:08;5.53;;;5.20;;
19560;SDS011;9927;47.792;10.616;2023-11-18T07:11:40;5.60;;;5.20;;
19560;SDS011;9927;47.792;10.616;2023-11-18T07:14:08;6.10;;;5.70;;
19560;SDS011;9927;47.792;10.616;2023-11-18T07:16:39;6.37;;;5.80;;
19560;SDS011;9927;47.792;10.616;2023-11-18T07:19:07;5.70;;;5.40;;
19560;SDS011;9927;47.792;10.616;2023-11-18T07:21:37;6.50;;;6.00;;
19560;SDS011;9927;47.792;10.616;2023-11-18T07:24:04;5.47;;;5.13;;
19560;SDS011;9927;47.792;10.616;2023-11-18T07:26:31;4.90;;;4.70;;
19560;SDS011;9927;47.792;10.616;2023-11-18T07:28:59;5.20;;;4.90;;
19560;SDS011;9927;47.792;10.616;2023-11-18T07:31:26;5.50;;;4.87;;
19560;SDS011;9927;47.792;10.616;2023-11-18T07:33:55;5.10;;;4.70;;
19560;SDS011;9927;47.792;10.616;2023-11-18T07:36:23;5.10;;;4.90;;
19560;SDS011;9927;47.792;10.616;2023-11-18T07:38:50;5.07;;;4.87;;
19560;SDS011;9927;47.792;10.616;2023-11-18T07:41:18;4.77;;;4.57;;
19560;SDS011;9927;47.792;10.616;2023-11-18T07:43:57;5.33;;;4.97;;
19560;SDS011;9927;47.792;10.616;2023-11-18T07:46:25;5.30;;;5.00;;
19560;SDS011;9927;47.792;10.616;2023-11-18T07:48:52;5.23;;;4.80;;
19560;SDS011;9927;47.792;10.616;2023-11-18T07:51:20;5.53;;;5.23;;
19560;SDS011;9927;47.792;10.616;2023-11-18T07:53:48;6.30;;;5.73;;
19560;SDS011;9927;47.792;10.616;2023-11-18T07:56:16;5.73;;;5.27;;
19560;SDS011;9927;47.792;10.616;2023-11-18T07:58:43;5.50;;;5.20;;
19560;SDS011;9927;47.792;10.616;2023-11-18T08:01:14;5.13;;;4.90;;
19560;SDS011;9927;47.792;10.616;2023-11-18T08:03:44;5.10;;;4.80;;
19560;SDS011;9927;47.792;10.616;2023-11-18T08:06:12;5.20;;;4.90;;
19560;SDS011;9927;47.792;10.616;2023-11-18T08:08:39;4.40;;;4.20;;
19560;SDS011;9927;47.792;10.616;2023-11-18T08:11:10;5.03;;;4.73;;
19560;SDS011;9927;47.792;10.616;2023-11-18T08:13:38;4.43;;;4.23;;
19560;SDS011;9927;47.792;10.616;2023-11-18T08:16:05;4.60;;;4.40;;
19560;SDS011;9927;47.792;10.616;2023-11-18T08:18:36;4.40;;;4.20;;
19560;SDS011;9927;47.792;10.616;2023-11-18T08:21:04;4.43;;;4.13;;
19560;SDS011;9927;47.792;10.616;2023-11-18T08:23:33;4.40;;;4.20;;
19560;SDS011;9927;47.792;10.616;2023-11-18T08:26:01;4.70;;;4.33;;
19560;SDS011;9927;47.792;10.616;2023-11-18T08:28:28;4.60;;;4.30;;
19560;SDS011;9927;47.792;10.616;2023-11-18T08:30:55;4.20;;;3.90;;
19560;SDS011;9927;47.792;10.616;2023-11-18T08:33:23;4.20;;;4.00;;
19560;SDS011;9927;47.792;10.616;2023-11-18T08:35:55;4.10;;;3.90;;
19560;SDS011;9927;47.792;10.616;2023-11-18T08:38:23;4.57;;;4.37;;
19560;SDS011;9927;47.792;10.616;2023-11-18T08:40:51;5.97;;;5.40;;
19560;SDS011;9927;47.792;10.616;2023-11-18T08:43:18;4.60;;;4.30;;
19560;SDS011;9927;47.792;10.616;2023-11-18T08:45:48;3.87;;;3.70;;
19560;SDS011;9927;47.792;10.616;2023-11-18T08:48:17;3.63;;;3.53;;
19560;SDS011;9927;47.792;10.616;2023-11-18T08:50:45;4.27;;;4.00;;
19560;SDS011;9927;47.792;10.616;2023-11-18T08:53:13;4.20;;;4.00;;
19560;SDS011;9927;47.792;10.616;2023-11-18T08:55:44;3.93;;;3.77;;
19560;SDS011;9927;47.792;10.616;2023-11-18T08:58:18;5.00;;;4.63;;
19560;SDS011;9927;47.792;10.616;2023-11-18T09:00:50;4.70;;;4.40;;
19560;SDS011;9927;47.792;10.616;2023-11-18T09:03:20;4.37;;;4.13;;
19560;SDS011;9927;47.792;10.616;2023-11-18T09:05:53;4.10;;;3.90;;
19560;SDS011;9927;47.792;10.616;2023-11-18T09:11:10;4.00;;;3.70;;
19560;SDS011;9927;47.792;10.616;2023-11-18T09:13:42;3.77;;;3.60;;
19560;SDS011;9927;47.792;10.616;2023-11-18T09:16:11;3.00;;;3.00;;
19560;SDS011;9927;47.792;10.616;2023-11-18T09:18:39;2.60;;;2.60;;
19560;SDS011;9927;47.792;10.616;2023-11-18T09:21:10;2.70;;;2.60;;
19560;SDS011;9927;47.792;10.616;2023-11-18T09:23:49;2.63;;;2.63;;
19560;SDS011;9927;47.792;10.616;2023-11-18T09:26:17;2.70;;;2.70;;
19560;SDS011;9927;47.792;10.616;2023-11-18T09:28:45;2.90;;;2.70;;
19560;SDS011;9927;47.792;10.616;2023-11-18T09:31:12;2.53;;;2.53;;
19560;SDS011;9927;47.792;10.616;2023-11-18T09:33:40;2.50;;;2.50;;
19560;SDS011;9927;47.792;10.616;2023-11-18T09:36:19;2.50;;;2.50;;
19560;SDS011;9927;47.792;10.616;2023-11-18T09:38:47;2.50;;;2.50;;
19560;SDS011;9927;47.792;10.616;2023-11-18T09:41:15;2.60;;;2.60;;
19560;SDS011;9927;47.792;10.616;2023-11-18T09:43:43;2.40;;;2.40;;
19560;SDS011;9927;47.792;10.616;2023-11-18T09:48:44;2.70;;;2.50;;
19560;SDS011;9927;47.792;10.616;2023-11-18T09:51:21;2.47;;;2.47;;
19560;SDS011;9927;47.792;10.616;2023-11-18T09:53:50;2.60;;;2.50;;
19560;SDS011;9927;47.792;10.616;2023-11-18T10:01:50;2.20;;;2.20;;
19560;SDS011;9927;47.792;10.616;2023-11-18T10:04:22;2.63;;;2.53;;
19560;SDS011;9927;47.792;10.616;2023-11-18T10:06:54;2.50;;;2.40;;
19560;SDS011;9927;47.792;10.616;2023-11-18T10:09:23;2.30;;;2.20;;
19560;SDS011;9927;47.792;10.616;2023-11-18T10:12:05;2.60;;;2.50;;
19560;SDS011;9927;47.792;10.616;2023-11-18T10:14:40;2.30;;;2.30;;
19560;SDS011;9927;47.792;10.616;2023-11-18T10:17:10;2.50;;;2.50;;
19560;SDS011;9927;47.792;10.616;2023-11-18T10:22:22;2.90;;;2.70;;
19560;SDS011;9927;47.792;10.616;2023-11-18T10:24:55;3.00;;;2.90;;
19560;SDS011;9927;47.792;10.616;2023-11-18T10:27:29;3.00;;;2.90;;
19560;SDS011;9927;47.792;10.616;2023-11-18T10:30:03;2.50;;;2.50;;
19560;SDS011;9927;47.792;10.616;2023-11-18T10:32:31;2.60;;;2.60;;
19560;SDS011;9927;47.792;10.616;2023-11-18T10:35:03;2.97;;;2.87;;
19560;SDS011;9927;47.792;10.616;2023-11-18T10:37:36;2.80;;;2.60;;
19560;SDS011;9927;47.792;10.616;2023-11-18T10:40:10;2.80;;;2.70;;
19560;SDS011;9927;47.792;10.616;2023-11-18T10:42:40;2.50;;;2.40;;
19560;SDS011;9927;47.792;10.616;2023-11-18T10:45:11;2.50;;;2.40;;
19560;SDS011;9927;47.792;10.616;2023-11-18T10:47:42;2.40;;;2.40;;
19560;SDS011;9927;47.792;10.616;2023-11-18T10:50:09;2.50;;;2.40;;
19560;SDS011;9927;47.792;10.616;2023-11-18T10:52:37;2.20;;;2.20;;
19560;SDS011;9927;47.792;10.616;2023-11-18T10:55:08;2.47;;;2.47;;
19560;SDS011;9927;47.792;10.616;2023-11-18T10:57:40;2.30;;;2.30;;
19560;SDS011;9927;47.792;10.616;2023-11-18T11:00:09;2.40;;;2.40;;
19560;SDS011;9927;47.792;10.616;2023-11-18T11:02:40;2.50;;;2.40;;
19560;SDS011;9927;47.792;10.616;2023-11-18T11:05:08;2.70;;;2.60;;
19560;SDS011;9927;47.792;10.616;2023-11-18T11:07:48;2.50;;;2.40;;
19560;SDS011;9927;47.792;10.616;2023-11-18T11:10:16;2.40;;;2.40;;
19560;SDS011;9927;47.792;10.616;2023-11-18T11:12:51;2.20;;;2.20;;
19560;SDS011;9927;47.792;10.616;2023-11-18T11:15:22;2.70;;;2.50;;
19560;SDS011;9927;47.792;10.616;2023-11-18T11:17:56;2.37;;;2.37;;
19560;SDS011;9927;47.792;10.616;2023-11-18T11:20:39;2.57;;;2.50;;
19560;SDS011;9927;47.792;10.616;2023-11-18T11:23:21;3.00;;;2.90;;
19560;SDS011;9927;47.792;10.616;2023-11-18T11:26:02;2.83;;;2.80;;
19560;SDS011;9927;47.792;10.616;2023-11-18T11:28:42;2.40;;;2.37;;
19560;SDS011;9927;47.792;10.616;2023-11-18T11:31:34;2.47;;;2.47;;
19560;SDS011;9927;47.792;10.616;2023-11-18T11:34:09;2.40;;;2.40;;
19560;SDS011;9927;47.792;10.616;2023-11-18T11:36:51;2.30;;;2.30;;
19560;SDS011;9927;47.792;10.616;2023-11-18T11:39:21;3.13;;;3.03;;
19560;SDS011;9927;47.792;10.616;2023-11-18T11:41:53;2.90;;;2.90;;
19560;SDS011;9927;47.792;10.616;2023-11-18T11:44:23;3.00;;;2.90;;
19560;SDS011;9927;47.792;10.616;2023-11-18T11:46:58;3.17;;;3.07;;
19560;SDS011;9927;47.792;10.616;2023-11-18T11:49:30;2.80;;;2.80;;
19560;SDS011;9927;47.792;10.616;2023-11-18T11:52:23;2.90;;;2.80;;
19560;SDS011;9927;47.792;10.616;2023-11-18T11:55:09;2.60;;;2.50;;
19560;SDS011;9927;47.792;10.616;2023-11-18T11:57:42;4.57;;;3.70;;
19560;SDS011;9927;47.792;10.616;2023-11-18T12:00:16;6.27;;;5.67;;
19560;SDS011;9927;47.792;10.616;2023-11-18T12:02:50;4.87;;;4.47;;
19560;SDS011;9927;47.792;10.616;2023-11-18T12:05:25;3.37;;;3.27;;
19560;SDS011;9927;47.792;10.616;2023-11-18T12:07:54;3.90;;;3.70;;
19560;SDS011;9927;47.792;10.616;2023-11-18T12:10:26;3.77;;;3.67;;
19560;SDS011;9927;47.792;10.616;2023-11-18T12:13:10;3.80;;;3.60;;
19560;SDS011;9927;47.792;10.616;2023-11-18T12:15:53;3.70;;;3.60;;
19560;SDS011;9927;47.792;10.616;2023-11-18T12:18:23;4.27;;;4.07;;
19560;SDS011;9927;47.792;10.616;2023-11-18T12:20:51;3.37;;;3.23;;
19560;SDS011;9927;47.792;10.616;2023-11-18T12:23:23;3.70;;;3.50;;
19560;SDS011;9927;47.792;10.616;2023-11-18T12:25:52;3.10;;;3.00;;
19560;SDS011;9927;47.792;10.616;2023-11-18T12:28:28;2.63;;;2.60;;
19560;SDS011;9927;47.792;10.616;2023-11-18T12:31:02;2.63;;;2.53;;
19560;SDS011;9927;47.792;10.616;2023-11-18T12:41:34;2.30;;;2.20;;
19560;SDS011;9927;47.792;10.616;2023-11-18T12:49:23;2.60;;;2.60;;
19560;SDS011;9927;47.792;10.616;2023-11-18T12:51:52;2.10;;;2.10;;
19560;SDS011;9927;47.792;10.616;2023-11-18T12:54:22;1.80;;;1.80;;
19560;SDS011;9927;47.792;10.616;2023-11-18T12:56:56;2.10;;;2.10;;
19560;SDS011;9927;47.792;10.616;2023-11-18T12:59:24;2.20;;;2.20;;
19560;SDS011;9927;47.792;10.616;2023-11-18T13:01:51;2.20;;;2.20;;
19560;SDS011;9927;47.792;10.616;2023-11-18T13:04:31;2.07;;;1.93;;
19560;SDS011;9927;47.792;10.616;2023-11-18T13:07:00;2.70;;;2.50;;
19560;SDS011;9927;47.792;10.616;2023-11-18T13:09:30;2.20;;;2.20;;
19560;SDS011;9927;47.792;10.616;2023-11-18T13:12:02;3.50;;;3.30;;
19560;SDS011;9927;47.792;10.616;2023-11-18T13:14:36;2.60;;;2.60;;
19560;SDS011;9927;47.792;10.616;2023-11-18T13:17:09;2.83;;;2.77;;
19560;SDS011;9927;47.792;10.616;2023-11-18T13:19:42;2.43;;;2.33;;
19560;SDS011;9927;47.792;10.616;2023-11-18T13:22:11;2.30;;;2.20;;
19560;SDS011;9927;47.792;10.616;2023-11-18T13:24:40;3.10;;;3.00;;
19560;SDS011;9927;47.792;10.616;2023-11-18T13:27:13;3.80;;;3.60;;
19560;SDS011;9927;47.792;10.616;2023-11-18T13:29:46;2.70;;;2.60;;
19560;SDS011;9927;47.792;10.616;2023-11-18T13:32:17;2.50;;;2.50;;
19560;SDS011;9927;47.792;10.616;2023-11-18T13:34:49;2.40;;;2.30;;
19560;SDS011;9927;47.792;10.616;2023-11-18T13:37:18;2.30;;;2.20;;
19560;SDS011;9927;47.792;10.616;2023-11-18T13:39:55;2.97;;;2.87;;
19560;SDS011;9927;47.792;10.616;2023-11-18T13:42:24;2.60;;;2.60;;
19560;SDS011;9927;47.792;10.616;2023-11-18T13:45:05;2.60;;;2.50;;
19560;SDS011;9927;47.792;10.616;2023-11-18T13:47:36;2.50;;;2.50;;
19560;SDS011;9927;47.792;10.616;2023-11-18T13:50:06;2.40;;;2.30;;
19560;SDS011;9927;47.792;10.616;2023-11-18T13:52:35;2.90;;;2.80;;
19560;SDS011;9927;47.792;10.616;2023-11-18T13:55:05;2.67;;;2.60;;
19560;SDS011;9927;47.792;10.616;2023-11-18T13:57:43;2.70;;;2.60;;
19560;SDS011;9927;47.792;10.616;2023-11-18T14:00:11;2.70;;;2.50;;
19560;SDS011;9927;47.792;10.616;2023-11-18T14:02:42;8.10;;;7.03;;
19560;SDS011;9927;47.792;10.616;2023-11-18T14:05:16;6.80;;;6.13;;
19560;SDS011;9927;47.792;10.616;2023-11-18T14:07:47;5.23;;;4.83;;
19560;SDS011;9927;47.792;10.616;2023-11-18T14:10:15;3.63;;;3.33;;
19560;SDS011;9927;47.792;10.616;2023-11-18T14:12:58;4.43;;;4.13;;
19560;SDS011;9927;47.792;10.616;2023-11-18T14:15:26;4.55;;;4.30;;
19560;SDS011;9927;47.792;10.616;2023-11-18T14:17:53;4.83;;;4.43;;
19560;SDS011;9927;47.792;10.616;2023-11-18T14:20:21;6.53;;;6.03;;
19560;SDS011;9927;47.792;10.616;2023-11-18T14:22:49;6.33;;;5.83;;
19560;SDS011;9927;47.792;10.616;2023-11-18T14:25:21;3.50;;;3.40;;
19560;SDS011;9927;47.792;10.616;2023-11-18T14:27:51;3.53;;;3.43;;
19560;SDS011;9927;47.792;10.616;2023-11-18T14:30:18;4.47;;;4.27;;
19560;SDS011;9927;47.792;10.616;2023-11-18T14:32:46;5.57;;;5.27;;
19560;SDS011;9927;47.792;10.616;2023-11-18T14:35:13;4.07;;;3.87;;
19560;SDS011;9927;47.792;10.616;2023-11-18T14:37:44;4.60;;;4.30;;
19560;SDS011;9927;47.792;10.616;2023-11-18T14:40:12;6.80;;;6.20;;
19560;SDS011;9927;47.792;10.616;2023-11-18T14:42:43;4.90;;;4.50;;
19560;SDS011;9927;47.792;10.616;2023-11-18T14:45:13;3.90;;;3.70;;
19560;SDS011;9927;47.792;10.616;2023-11-18T14:47:41;5.47;;;3.97;;
19560;SDS011;9927;47.792;10.616;2023-11-18T14:50:12;4.33;;;3.83;;
19560;SDS011;9927;47.792;10.616;2023-11-18T14:52:44;4.13;;;3.93;;
19560;SDS011;9927;47.792;10.616;2023-11-18T14:55:12;3.90;;;3.70;;
19560;SDS011;9927;47.792;10.616;2023-11-18T14:57:40;4.40;;;4.20;;
19560;SDS011;9927;47.792;10.616;2023-11-18T15:00:11;3.40;;;3.20;;
19560;SDS011;9927;47.792;10.616;2023-11-18T15:02:49;3.80;;;3.70;;
19560;SDS011;9927;47.792;10.616;2023-11-18T15:05:21;4.40;;;4.10;;
19560;SDS011;9927;47.792;10.616;2023-11-18T15:07:53;4.13;;;3.93;;
19560;SDS011;9927;47.792;10.616;2023-11-18T15:10:22;5.00;;;4.20;;
19560;SDS011;9927;47.792;10.616;2023-11-18T15:12:54;4.53;;;4.23;;
19560;SDS011;9927;47.792;10.616;2023-11-18T15:15:29;5.17;;;4.77;;
19560;SDS011;9927;47.792;10.616;2023-11-18T15:18:06;7.37;;;6.73;;
19560;SDS011;9927;47.792;10.616;2023-11-18T15:20:37;8.80;;;8.00;;
19560;SDS011;9927;47.792;10.616;2023-11-18T15:23:09;9.03;;;8.13;;
19560;SDS011;9927;47.792;10.616;2023-11-18T15:25:38;6.53;;;6.03;;
19560;SDS011;9927;47.792;10.616;2023-11-18T15:28:06;4.67;;;4.33;;
19560;SDS011;9927;47.792;10.616;2023-11-18T15:30:36;4.83;;;4.43;;
19560;SDS011;9927;47.792;10.616;2023-11-18T15:33:04;7.03;;;6.30;;
19560;SDS011;9927;47.792;10.616;2023-11-18T15:35:35;9.97;;;9.07;;
19560;SDS011;9927;47.792;10.616;2023-11-18T15:38:07;5.53;;;5.13;;
19560;SDS011;9927;47.792;10.616;2023-11-18T15:40:36;5.50;;;5.10;;
19560;SDS011;9927;47.792;10.616;2023-11-18T15:43:04;5.30;;;4.90;;
19560;SDS011;9927;47.792;10.616;2023-11-18T15:45:34;4.30;;;4.10;;
19560;SDS011;9927;47.792;10.616;2023-11-18T15:48:01;3.90;;;3.70;;
19560;SDS011;9927;47.792;10.616;2023-11-18T15:50:32;5.53;;;5.03;;
19560;SDS011;9927;47.792;10.616;2023-11-18T15:53:04;5.50;;;5.00;;
19560;SDS011;9927;47.792;10.616;2023-11-18T15:55:35;4.00;;;3.80;;
19560;SDS011;9927;47.792;10.616;2023-11-18T15:58:03;4.73;;;4.43;;
19560;SDS011;9927;47.792;10.616;2023-11-18T16:00:31;3.73;;;3.63;;
19560;SDS011;9927;47.792;10.616;2023-11-18T16:02:59;3.40;;;3.30;;
19560;SDS011;9927;47.792;10.616;2023-11-18T16:05:29;4.53;;;4.00;;
19560;SDS011;9927;47.792;10.616;2023-11-18T16:08:02;3.60;;;3.50;;
19560;SDS011;9927;47.792;10.616;2023-11-18T16:10:31;4.20;;;4.00;;
19560;SDS011;9927;47.792;10.616;2023-11-18T16:13:00;21.47;;;14.10;;
19560;SDS011;9927;47.792;10.616;2023-11-18T16:15:28;13.73;;;9.90;;